Time;durP1;ratioP1;P1;durP2;ratioP2;P2;SDS_P1;SDS_P2;PMS_P1;PMS_P2;Temp;Humidity;BMP_temperature;BMP_pressure;BME280_temperature;BME280_humidity;BME280_pressure;Samples;Min_cycle;Max_cycle;Signal;HPM_P1;HPM_P2
2022/05/26 00:11:39;;;;;;;7.70;5.35;;;;;;;12.67;100.00;100249.30;713828;1179;114506;-80
2022/05/26 00:26:41;;;;;;;9.53;5.57;;;;;;;12.68;100.00;100243.03;713794;1179;114269;-81
2022/05/26 00:41:48;;;;;;;9.93;5.40;;;;;;;12.46;100.00;100231.98;713673;1180;115864;-80
2022/05/26 00:57:05;;;;;;;7.20;4.83;;;;;;;12.33;100.00;100239.41;712280;1178;115857;-81
2022/05/26 01:12:08;;;;;;;7.53;5.10;;;;;;;12.22;100.00;100229.08;713446;1180;114447;-81
2022/05/26 01:27:55;;;;;;;8.35;5.50;;;;;;;12.12;100.00;100224.70;713835;1177;114537;-81
2022/05/26 01:43:24;;;;;;;7.65;5.55;;;;;;;11.98;100.00;100212.05;713341;1180;114272;-81
2022/05/26 01:58:43;;;;;;;7.25;5.35;;;;;;;11.94;100.00;100213.28;713602;1179;115048;-82
2022/05/26 02:14:06;;;;;;;9.00;4.93;;;;;;;11.93;100.00;100203.73;713913;1178;114883;-80
2022/05/26 02:44:32;;;;;;;7.78;5.23;;;;;;;11.78;100.00;100196.33;713795;1180;114228;-81
2022/05/26 02:59:42;;;;;;;7.43;5.33;;;;;;;11.77;100.00;100180.71;713931;1179;115379;-81
2022/05/26 03:14:44;;;;;;;9.95;5.85;;;;;;;11.78;100.00;100177.93;714012;1180;115025;-81
2022/05/26 03:29:46;;;;;;;13.93;8.53;;;;;;;12.10;100.00;100163.56;713949;1178;114664;-81
2022/05/26 03:44:50;;;;;;;14.33;7.87;;;;;;;12.42;100.00;100172.75;713807;1179;115186;-82
2022/05/26 03:59:52;;;;;;;12.70;7.15;;;;;;;12.86;100.00;100181.69;713915;1180;115283;-82
2022/05/26 04:14:55;;;;;;;12.70;8.03;;;;;;;13.18;100.00;100173.17;713532;1180;115106;-75
2022/05/26 04:29:58;;;;;;;13.83;7.17;;;;;;;13.34;100.00;100177.71;713026;1177;115916;-75
2022/05/26 04:45:00;;;;;;;10.00;7.53;;;;;;;13.43;100.00;100163.63;713382;1177;115282;-75
2022/05/26 05:00:06;;;;;;;11.50;7.95;;;;;;;13.70;100.00;100155.68;712557;1180;115357;-72
2022/05/26 05:15:15;;;;;;;14.55;7.75;;;;;;;13.94;100.00;100137.31;712350;1179;115325;-72
2022/05/26 05:30:22;;;;;;;13.70;8.10;;;;;;;14.60;100.00;100142.69;712105;1178;115325;-74
2022/05/26 05:45:24;;;;;;;12.23;6.50;;;;;;;15.56;100.00;100140.23;712351;1180;114397;-74
2022/05/26 06:00:26;;;;;;;8.23;6.00;;;;;;;16.58;100.00;100133.20;712472;1178;115239;-75
2022/05/26 06:15:33;;;;;;;9.27;5.13;;;;;;;16.86;98.95;100128.14;713751;1179;115122;-84
2022/05/26 06:30:35;;;;;;;7.05;4.95;;;;;;;17.03;96.25;100128.83;715004;1180;114429;-79
2022/05/26 06:45:38;;;;;;;10.07;4.90;;;;;;;17.85;93.81;100128.88;713643;1180;114826;-83
2022/05/26 07:00:40;;;;;;;6.75;4.58;;;;;;;18.73;89.30;100112.79;714536;1178;114908;-78
2022/05/26 07:15:43;;;;;;;6.17;3.60;;;;;;;19.20;84.79;100103.31;714319;1180;114993;-79
2022/05/26 07:30:45;;;;;;;17.35;9.45;;;;;;;19.67;82.42;100084.88;713669;1180;115628;-76
2022/05/26 07:45:50;;;;;;;11.25;3.80;;;;;;;19.52;77.86;100106.32;713014;1180;114261;-75
2022/05/26 08:00:54;;;;;;;6.27;4.10;;;;;;;19.76;76.99;100098.83;713121;1180;114232;-76
2022/05/26 08:15:57;;;;;;;6.95;4.55;;;;;;;20.96;76.02;100092.80;714213;1177;115626;-76
2022/05/26 08:31:00;;;;;;;4.27;3.00;;;;;;;20.99;69.55;100094.23;712818;1178;114927;-76
2022/05/26 08:46:07;;;;;;;6.00;3.53;;;;;;;20.84;69.31;100094.45;712556;1179;114979;-76
2022/05/26 09:01:12;;;;;;;5.53;2.50;;;;;;;21.09;68.52;100105.30;712843;1178;115350;-76
2022/05/26 09:16:15;;;;;;;3.17;2.60;;;;;;;20.40;68.16;100096.70;712836;1177;114097;-76
2022/05/26 09:31:17;;;;;;;5.18;2.35;;;;;;;20.33;66.91;100102.03;712252;1180;115058;-76
2022/05/26 09:46:25;;;;;;;4.80;2.45;;;;;;;21.88;65.62;100060.64;712177;1178;114511;-75
2022/05/26 10:01:29;;;;;;;3.75;2.10;;;;;;;21.97;63.56;100063.05;713163;1179;114456;-73
2022/05/26 10:16:59;;;;;;;3.17;2.10;;;;;;;21.35;63.47;100092.89;714658;1180;114978;-75
2022/05/26 10:32:29;;;;;;;1.93;1.68;;;;;;;22.38;63.50;100081.27;713530;1178;115044;-75
2022/05/26 10:48:02;;;;;;;4.80;2.13;;;;;;;22.03;61.05;100056.84;713932;1179;114810;-74
2022/05/26 11:03:23;;;;;;;1.83;1.33;;;;;;;22.54;61.62;100071.05;713344;1178;114130;-75
2022/05/26 11:18:31;;;;;;;2.60;1.50;;;;;;;22.25;59.16;100070.63;712869;1179;115667;-76
2022/05/26 11:49:40;;;;;;;2.78;1.38;;;;;;;22.82;57.68;100053.70;712374;1178;115375;-75
2022/05/26 12:04:45;;;;;;;1.73;1.28;;;;;;;22.34;57.28;100050.63;712399;1178;114589;-75
2022/05/26 12:19:48;;;;;;;1.78;1.00;;;;;;;21.90;57.45;100031.86;712399;1178;114270;-74
2022/05/26 12:35:14;;;;;;;4.80;1.57;;;;;;;21.15;60.73;100087.63;712264;1179;115082;-76
2022/05/26 12:50:24;;;;;;;3.18;2.08;;;;;;;17.85;73.89;100153.56;712945;1179;114230;-75
2022/05/26 13:05:30;;;;;;;2.90;1.80;;;;;;;16.98;83.07;100181.55;712421;1177;114618;-74
2022/05/26 13:20:36;;;;;;;2.50;1.55;;;;;;;16.71;84.92;100199.63;712047;1179;114259;-76
2022/05/26 13:36:01;;;;;;;3.80;1.90;;;;;;;16.68;85.51;100146.19;712406;1178;114182;-79
2022/05/26 13:51:36;;;;;;;9.05;4.65;;;;;;;18.99;84.37;100135.27;713953;1180;115040;-79
2022/05/26 14:06:39;;;;;;;22.00;15.05;;;;;;;19.53;79.26;100129.25;714128;1178;114264;-80
2022/05/26 14:21:49;;;;;;;5.17;3.07;;;;;;;19.89;76.67;100124.70;713478;1179;114475;-79
2022/05/26 14:36:52;;;;;;;29.83;16.93;;;;;;;19.96;74.42;100120.20;712121;1178;115358;-79
2022/05/26 14:51:55;;;;;;;10.60;4.70;;;;;;;20.34;73.56;100122.32;713578;1180;115165;-76
2022/05/26 15:06:58;;;;;;;4.77;3.20;;;;;;;20.25;74.31;100110.23;712496;1178;114526;-77
2022/05/26 15:22:01;;;;;;;5.50;2.30;;;;;;;20.71;70.92;100103.30;712405;1180;114975;-77
2022/05/26 15:37:05;;;;;;;5.20;2.60;;;;;;;21.07;68.39;100097.48;712343;1179;115227;-77
2022/05/26 15:52:07;;;;;;;3.47;1.53;;;;;;;21.02;64.91;100105.28;714644;1179;114931;-77
2022/05/26 16:07:11;;;;;;;2.95;1.60;;;;;;;20.83;63.85;100108.83;712734;1180;114981;-77
2022/05/26 16:22:22;;;;;;;5.60;3.85;;;;;;;20.17;63.05;100123.73;713034;1180;115276;-77
2022/05/26 16:37:24;;;;;;;9.90;5.78;;;;;;;20.65;63.41;100099.56;712335;1180;115663;-77
2022/05/26 16:52:27;;;;;;;7.23;4.00;;;;;;;20.62;63.35;100102.66;712067;1179;114203;-79
2022/05/26 17:07:31;;;;;;;17.43;9.03;;;;;;;20.15;63.95;100109.80;712184;1178;115232;-80
2022/05/26 17:22:35;;;;;;;4.03;2.20;;;;;;;19.71;64.50;100115.38;712476;1178;114402;-78
2022/05/26 17:37:38;;;;;;;10.57;5.80;;;;;;;19.35;65.66;100132.42;714042;1179;114267;-81
2022/05/26 17:52:42;;;;;;;14.35;7.28;;;;;;;19.26;66.93;100117.66;713404;1179;115892;-82
2022/05/26 18:07:44;;;;;;;19.93;11.80;;;;;;;19.02;67.99;100133.05;714393;1179;115209;-78
2022/05/26 18:22:56;;;;;;;12.50;6.53;;;;;;;18.55;68.37;100126.53;712176;1180;114525;-80
2022/05/26 18:37:59;;;;;;;10.90;4.70;;;;;;;18.18;68.63;100125.79;713287;1178;114865;-78
2022/05/26 18:53:04;;;;;;;14.60;7.05;;;;;;;17.76;69.86;100131.64;713832;1179;114835;-80
2022/05/26 19:08:15;;;;;;;12.70;4.60;;;;;;;17.30;69.82;100156.55;713852;1180;114286;-79
2022/05/26 19:23:20;;;;;;;12.37;4.43;;;;;;;16.86;69.75;100175.01;714125;1179;114702;-80
2022/05/26 19:38:22;;;;;;;11.15;6.90;;;;;;;16.66;69.81;100185.28;714367;1179;115050;-81
2022/05/26 19:53:25;;;;;;;11.15;5.85;;;;;;;16.50;69.20;100179.09;714783;1178;114403;-80
2022/05/26 20:08:29;;;;;;;6.87;2.90;;;;;;;16.27;69.41;100181.72;715515;1178;114923;-79
2022/05/26 20:23:31;;;;;;;7.65;2.10;;;;;;;15.99;69.35;100189.33;715327;1177;115037;-78
2022/05/26 20:38:34;;;;;;;8.83;2.63;;;;;;;15.77;70.81;100192.53;713038;1180;114062;-78
2022/05/26 20:53:38;;;;;;;9.23;2.93;;;;;;;15.80;70.75;100205.44;712548;1180;114695;-78
2022/05/26 21:08:42;;;;;;;7.10;2.35;;;;;;;15.91;70.17;100214.00;713949;1179;114211;-79
2022/05/26 21:23:44;;;;;;;4.17;1.87;;;;;;;15.95;68.83;100189.66;713417;1178;114559;-79
2022/05/26 21:38:46;;;;;;;4.40;1.98;;;;;;;15.83;68.86;100187.59;712073;1178;115697;-77
2022/05/26 21:53:49;;;;;;;7.00;2.40;;;;;;;15.72;69.45;100173.71;712383;1178;114211;-77
2022/05/26 22:24:17;;;;;;;4.95;2.75;;;;;;;15.58;70.83;100174.42;712068;1180;114396;-78
2022/05/26 22:39:20;;;;;;;6.85;2.40;;;;;;;15.51;71.26;100157.61;711952;1180;115101;-77
2022/05/26 22:54:23;;;;;;;6.20;2.10;;;;;;;15.46;71.51;100144.89;711781;1180;114946;-77
2022/05/26 23:09:25;;;;;;;4.35;2.15;;;;;;;15.32;72.12;100146.41;712083;1178;114218;-78
2022/05/26 23:24:27;;;;;;;4.60;1.80;;;;;;;15.35;72.21;100129.38;712155;1179;114083;-77
2022/05/26 23:39:29;;;;;;;5.23;1.95;;;;;;;15.47;71.75;100104.25;712984;1179;114414;-76
2022/05/26 23:54:32;;;;;;;6.57;1.90;;;;;;;15.45;71.96;100095.66;712747;1178;115139;-77
